• Join FlightAware (Why Join?)
  • Login
  • US Flag 
08:00AM EDT


 

Airport Tracker/Info


-or-


 

Live Flight TrackerFlight Track Log ✈ NMI1 ✈ 10-May-2013 ✈ KCNM - KABQ

Flight Track Log - Related Links

Times and Time Zones

All times are in EDT time to prevent confusion due to time zone crossing. See the NMI1 flight status page for this flight to view local times or setup timezone preferences in your user account.

Time Position Orientation Groundspeed Altitude Reporting Facility
EDT Latitude Longitude Course Direction KTS MPH feet Rate Location/Type
08:15AM 32.4311 -104.2861 342° North 161 185 5,900  Level Albuquerque Center
08:16AM 32.4611 -104.3022 336° Northwest 120 138 6,600 600 Climbing Albuquerque Center
08:17AM 32.4972 -104.3197 338° Northwest 128 147 7,200 540 Climbing Albuquerque Center
08:18AM 32.5344 -104.3333 343° North 138 159 7,800 420 Climbing Albuquerque Center
08:19AM 32.5750 -104.3461 345° North 149 171 8,100 60 Climbing Albuquerque Center
08:20AM 32.5792 -104.3338 342° North  Level FlightAware Approximate
08:20AM 32.6186 -104.3583 347° North 160 184 8,000  Level Albuquerque Center
08:21AM 32.6581 -104.3769 338° Northwest 154 177 8,500 840 Climbing Albuquerque Center
08:22AM 32.6914 -104.4036 326° Northwest 144 166 9,700 840 Climbing Albuquerque Center
08:23AM 32.7286 -104.4200 340° North 148 170 10,200 180 Climbing Albuquerque Center
08:24AM 32.7711 -104.4247 355° North 152 175 10,100 -60 Descending Albuquerque Center
08:25AM 32.8142 -104.4186 North 156 180 10,100 -60 Level Albuquerque Center
08:26AM 32.8539 -104.4347 341° North 151 174 10,000 -60 Descending Albuquerque Center
08:27AM 32.8947 -104.4564 336° Northwest 149 171 10,000  Level Albuquerque Center
08:28AM 32.9300 -104.4842 327° Northwest 152 175 10,000  Level Albuquerque Center
08:29AM 32.9683 -104.5064 334° Northwest 153 176 10,000  Level Albuquerque Center
08:30AM 33.0089 -104.5194 345° North 151 174 10,000  Level Albuquerque Center
08:31AM 33.0508 -104.5281 350° North 153 176 10,000  Level Albuquerque Center
08:32AM 33.0922 -104.5386 348° North 152 175 10,000  Level Albuquerque Center
08:33AM 33.1336 -104.5528 344° North 154 177 10,000  Level Albuquerque Center
08:34AM 33.1747 -104.5706 340° North 156 180 10,000  Level Albuquerque Center
08:35AM 33.2161 -104.5858 343° North 156 180 10,000  Level Albuquerque Center
08:36AM 33.2625 -104.5972 348° North 157 181 10,000  Level Albuquerque Center
08:37AM 33.3033 -104.6114 344° North 161 185 10,000  Level Albuquerque Center
08:38AM 33.3467 -104.6378 333° Northwest 160 184 10,000  Level Albuquerque Center
08:39AM 33.3808 -104.6764 317° Northwest 167 192 10,000  Level Albuquerque Center
08:40AM 33.4147 -104.7136 317° Northwest 166 191 10,000  Level Albuquerque Center
08:41AM 33.4475 -104.7511 316° Northwest 164 189 10,000  Level Albuquerque Center
08:42AM 33.4839 -104.7861 321° Northwest 167 192 10,000  Level Albuquerque Center
08:43AM 33.5203 -104.8203 322° Northwest 167 192 10,000  Level Albuquerque Center
08:44AM 33.5556 -104.8547 321° Northwest 164 189 10,000  Level Albuquerque Center
08:45AM 33.5900 -104.8906 319° Northwest 162 186 10,000 -60 Level Albuquerque Center
08:46AM 33.6275 -104.9275 321° Northwest 163 188 9,900 -60 Descending Albuquerque Center
08:47AM 33.6603 -104.9661 316° Northwest 164 189 9,900  Level Albuquerque Center
08:48AM 33.6950 -105.0014 320° Northwest 163 188 9,900  Level Albuquerque Center
08:49AM 33.7281 -105.0378 318° Northwest 162 186 9,900  Level Albuquerque Center
08:50AM 33.7631 -105.0719 321° Northwest 163 188 9,900  Level Albuquerque Center
08:51AM 33.7989 -105.1044 323° Northwest 161 185 9,900  Level Albuquerque Center
08:52AM 33.8339 -105.1403 320° Northwest 164 189 9,900  Level Albuquerque Center
08:53AM 33.8681 -105.1694 325° Northwest 163 188 9,900  Level Albuquerque Center
08:54AM 33.9103 -105.2075 323° Northwest 163 188 9,900  Level Albuquerque Center
08:55AM 33.9469 -105.2403 323° Northwest 164 189 9,900  Level Albuquerque Center
08:56AM 33.9775 -105.2706 321° Northwest 163 188 10,000  Climbing Albuquerque Center
08:57AM 34.0150 -105.3025 325° Northwest 162 186 10,000  Level Albuquerque Center
08:58AM 34.0500 -105.3389 319° Northwest 163 188 10,000  Level Albuquerque Center
08:59AM 34.0867 -105.3731 322° Northwest 164 189 10,000  Level Albuquerque Center
09:00AM 34.1233 -105.4078 322° Northwest 164 189 10,000  Level Albuquerque Center
09:01AM 34.1594 -105.4419 322° Northwest 164 189 10,000  Level Albuquerque Center
09:02AM 34.1947 -105.4772 320° Northwest 164 189 10,000  Level Albuquerque Center
09:03AM 34.2286 -105.5122 320° Northwest 162 186 10,000  Level Albuquerque Center
09:04AM 34.2622 -105.5481 319° Northwest 160 184 10,000  Level Albuquerque Center
09:05AM 34.2906 -105.5892 310° West 160 184 10,000  Level Albuquerque Center
09:06AM 34.3192 -105.6292 311° West 158 182 10,000  Level Albuquerque Center
09:07AM 34.3517 -105.6642 318° Northwest 156 180 10,000  Level Albuquerque Center
09:08AM 34.3878 -105.6967 323° Northwest 157 181 10,000  Level Albuquerque Center
09:09AM 34.4244 -105.7278 325° Northwest 158 182 10,000  Level Albuquerque Center
09:10AM 34.4622 -105.7528 331° Northwest 156 180 10,000  Level Albuquerque Center
09:11AM 34.4986 -105.7794 329° Northwest 154 177 10,000  Level Albuquerque Center
09:12AM 34.5367 -105.8042 332° Northwest 153 176 10,000 -60 Level Albuquerque Center
09:13AM 34.5756 -105.8289 332° Northwest 155 178 9,900  Descending Albuquerque Center
09:14AM 34.6119 -105.8561 328° Northwest 154 177 10,000  Climbing Albuquerque Center
09:15AM 34.6472 -105.8858 325° Northwest 154 177 10,000  Level Albuquerque Center
09:16AM 34.6836 -105.9164 325° Northwest 154 177 10,000  Level Albuquerque Center
09:17AM 34.7203 -105.9469 326° Northwest 157 181 10,000  Level Albuquerque Center
09:18AM 34.7575 -105.9797 324° Northwest 161 185 10,000  Level Albuquerque Center
09:19AM 34.7942 -106.0139 323° Northwest 163 188 10,000  Level Albuquerque Center
09:20AM 34.8294 -106.0492 321° Northwest 164 189 10,000  Level Albuquerque Center
09:21AM 34.8614 -106.0825 319° Northwest 163 188 10,000  Level Albuquerque Center
09:22AM 34.9017 -106.1253 319° Northwest 162 186 10,000  Level Albuquerque Center
09:23AM 34.9353 -106.1622 318° Northwest 162 186 10,000  Level Albuquerque Center
09:24AM 34.9442 -106.1747 311° West 162 186 10,000  Level Albuquerque Center
09:24AM 34.9472 -106.1919 282° West 171 197 10,000  Level Albuquerque Center
09:24AM 34.9503 -106.2111 281° West 163 188 10,000  Level Albuquerque Center
09:25AM 34.9508 -106.2481 271° West 163 188 10,000  Level Albuquerque Center
09:25AM 34.9528 -106.2658 278° West 164 189 10,000  Level Albuquerque Center
09:26AM 34.9500 -106.3028 265° West 164 189 10,000  Level Albuquerque Center
09:26AM 34.9511 -106.3219 274° West 164 189 10,000  Level Albuquerque Center
09:27AM 34.9489 -106.3575 266° West 166 191 10,000  Level Albuquerque Center
09:27AM 34.9492 -106.3778 271° West 165 190 10,000 -540 Level Albuquerque Center
09:28AM 34.9483 -106.4147 268° West 172 198 9,500 -900 Descending Albuquerque Center
09:28AM 34.9500 -106.4356 276° West 167 192 9,100 -1,200 Descending Albuquerque Center
09:29AM 34.9503 -106.4739 271° West 173 199 8,300 -1,020 Descending Albuquerque Center
09:29AM 34.9531 -106.4992 278° West 170 196 8,100 -1,140 Descending Albuquerque Center
09:30AM 34.9778 -106.5211 324° Northwest 170 196 7,200 -1,200 Descending Albuquerque Center
09:30AM 34.9883 -106.5375 308° West 173 199 6,900 -720 Descending Albuquerque Center
09:31AM 35.0042 -106.5608 310° West 153 176 6,500 -840 Descending Albuquerque Center
09:31AM 35.0128 -106.5747 307° West 158 182 6,100 -900 Descending Albuquerque Center
09:32AM 35.0253 -106.5969 304° West 121 139 5,600 -840 Descending Albuquerque Center
09:32AM 35.0344 -106.6069 318° Northwest 140 161 5,300 -660 Descending Albuquerque Center
09:34AM 35.0402 -106.6092 101° East  Level Estimated
09:41AM 35.0402 -106.6092 301° West  Level Estimated
09:42AM 35.0402 -106.6092 301° West  Level Estimated
09:43AM 35.0402 -106.6092 301° West  Level Estimated
09:44AM 35.0402 -106.6092 301° West  Level Estimated
09:45AM 35.0402 -106.6092 301° West  Level Estimated
09:46AM 35.0402 -106.6092 301° West  Level Estimated
09:47AM 35.0402 -106.6092 301° West  Level Estimated
09:48AM 35.0402 -106.6092 301° West  Level Estimated
09:49AM 35.0402 -106.6092 301° West  Level Estimated